createdAt,value
2019-05-10T00:00:19.115Z,3.30
2019-05-10T00:03:07.630Z,3.90
2019-05-10T00:05:56.096Z,3.12
2019-05-10T00:08:44.352Z,3.25
2019-05-10T00:11:30.890Z,3.10
2019-05-10T00:14:06.983Z,4.25
2019-05-10T00:16:37.601Z,3.85
2019-05-10T00:19:08.059Z,4.47
2019-05-10T00:21:39.816Z,4.85
2019-05-10T00:24:10.646Z,3.65
2019-05-10T00:26:41.490Z,3.90
2019-05-10T00:29:11.926Z,4.08
2019-05-10T00:31:42.716Z,4.00
2019-05-10T00:34:15.500Z,4.00
2019-05-10T00:36:47.201Z,4.00
2019-05-10T00:39:19.462Z,3.58
2019-05-10T00:41:50.263Z,3.98
2019-05-10T00:44:20.474Z,3.83
2019-05-10T00:46:52.828Z,4.20
2019-05-10T00:49:23.110Z,4.45
2019-05-10T00:51:54.183Z,4.37
2019-05-10T00:54:26.246Z,4.33
2019-05-10T00:56:57.458Z,4.03
2019-05-10T00:59:27.826Z,3.95
2019-05-10T01:01:59.985Z,3.80
2019-05-10T01:04:31.435Z,4.37
2019-05-10T01:07:01.695Z,4.25
2019-05-10T01:09:34.068Z,4.15
2019-05-10T01:12:04.378Z,3.83
2019-05-10T01:14:34.674Z,4.17
2019-05-10T01:17:05.853Z,4.45
2019-05-10T01:19:36.965Z,4.17
2019-05-10T01:22:07.275Z,4.25
2019-05-10T01:24:37.613Z,4.22
2019-05-10T01:27:08.401Z,4.20
2019-05-10T01:29:38.735Z,3.95
2019-05-10T01:32:12.405Z,4.37
2019-05-10T01:34:42.752Z,3.90
2019-05-10T01:37:14.484Z,4.87
2019-05-10T01:39:46.450Z,4.60
2019-05-10T01:42:16.862Z,3.75
2019-05-10T01:44:48.733Z,4.30
2019-05-10T01:47:19.042Z,4.37
2019-05-10T01:49:49.479Z,4.83
2019-05-10T01:52:19.893Z,4.45
2019-05-10T01:54:50.540Z,4.85
2019-05-10T01:57:20.950Z,4.70
2019-05-10T01:59:51.766Z,4.80
2019-05-10T02:02:22.113Z,4.67
2019-05-10T02:04:54.797Z,4.65
2019-05-10T02:07:25.101Z,4.25
2019-05-10T02:09:55.703Z,5.40
2019-05-10T02:12:26.072Z,4.72
2019-05-10T02:14:57.874Z,4.90
2019-05-10T02:17:28.188Z,4.40
2019-05-10T02:19:59.552Z,5.17
2019-05-10T02:22:30.015Z,5.22
2019-05-10T02:25:01.177Z,4.75
2019-05-10T02:27:31.496Z,4.87
2019-05-10T02:30:02.229Z,5.00
2019-05-10T02:32:32.553Z,4.65
2019-05-10T02:35:06.989Z,5.20
2019-05-10T02:37:39.323Z,6.85
2019-05-10T02:40:10.798Z,6.25
2019-05-10T02:42:41.114Z,5.35
2019-05-10T02:45:13.866Z,5.28
2019-05-10T02:47:44.184Z,5.37
2019-05-10T02:50:14.529Z,5.65
2019-05-10T02:52:44.841Z,6.45
2019-05-10T02:55:16.739Z,5.72
2019-05-10T02:57:47.689Z,5.15
2019-05-10T03:00:18.575Z,5.90
2019-05-10T03:02:50.222Z,5.50
2019-05-10T03:05:21.582Z,5.25
2019-05-10T03:07:54.787Z,5.15
2019-05-10T03:10:29.662Z,5.53
2019-05-10T03:13:01.936Z,5.77
2019-05-10T03:15:36.584Z,5.55
2019-05-10T03:18:07.895Z,5.90
2019-05-10T03:20:39.727Z,6.00
2019-05-10T03:23:11.252Z,5.37
2019-05-10T03:25:42.079Z,5.83
2019-05-10T03:28:12.404Z,5.65
2019-05-10T03:30:43.162Z,5.45
2019-05-10T03:33:13.436Z,5.03
2019-05-10T03:35:43.885Z,5.80
2019-05-10T03:38:15.312Z,5.50
2019-05-10T03:40:46.483Z,5.72
2019-05-10T03:43:16.804Z,5.40
2019-05-10T03:45:47.224Z,5.90
2019-05-10T03:48:19.413Z,5.45
2019-05-10T03:50:50.523Z,5.65
2019-05-10T03:53:20.770Z,6.35
2019-05-10T03:55:51.790Z,5.83
2019-05-10T03:58:22.110Z,6.08
2019-05-10T04:00:53.552Z,6.05
2019-05-10T04:03:24.967Z,6.67
2019-05-10T04:05:56.264Z,5.95
2019-05-10T04:08:26.587Z,6.62
2019-05-10T04:10:57.110Z,7.75
2019-05-10T04:13:27.711Z,6.62
2019-05-10T04:15:58.037Z,5.95
2019-05-10T04:18:28.475Z,5.83
2019-05-10T04:21:00.094Z,6.37
2019-05-10T04:23:30.346Z,7.55
2019-05-10T04:26:01.499Z,6.42
2019-05-10T04:28:31.825Z,6.95
2019-05-10T04:31:02.117Z,7.58
2019-05-10T04:33:32.834Z,6.45
2019-05-10T04:36:04.321Z,7.35
2019-05-10T04:38:36.572Z,7.55
2019-05-10T04:41:07.015Z,7.33
2019-05-10T04:43:38.271Z,7.47
2019-05-10T04:46:09.779Z,8.43
2019-05-10T04:48:40.252Z,7.15
2019-05-10T04:51:10.500Z,8.63
2019-05-10T04:53:44.674Z,7.70
2019-05-10T04:56:15.195Z,7.47
2019-05-10T04:58:46.451Z,8.13
2019-05-10T05:01:16.765Z,6.97
2019-05-10T05:03:47.767Z,6.67
2019-05-10T05:06:18.872Z,6.95
2019-05-10T05:08:49.192Z,7.33
2019-05-10T05:11:20.514Z,7.08
2019-05-10T05:13:50.835Z,6.42
2019-05-10T05:16:21.164Z,7.05
2019-05-10T05:18:53.048Z,6.90
2019-05-10T05:21:24.130Z,6.87
2019-05-10T05:23:54.362Z,6.87
2019-05-10T05:26:25.036Z,6.80
2019-05-10T05:28:55.326Z,6.33
2019-05-10T05:31:25.638Z,6.67
2019-05-10T05:33:59.101Z,6.78
2019-05-10T05:36:28.754Z,6.83
2019-05-10T05:39:00.001Z,7.08
2019-05-10T05:41:32.647Z,7.65
2019-05-10T05:44:03.210Z,7.22
2019-05-10T05:46:34.368Z,10.10
2019-05-10T05:49:05.180Z,8.55
2019-05-10T05:51:35.500Z,8.30
2019-05-10T05:54:05.899Z,8.65
2019-05-10T05:56:36.114Z,9.18
2019-05-10T05:59:08.999Z,9.25
2019-05-10T06:01:39.373Z,8.03
2019-05-10T06:04:12.693Z,7.62
2019-05-10T06:06:41.943Z,9.03
2019-05-10T06:09:12.477Z,7.87
2019-05-10T06:11:43.473Z,9.68
2019-05-10T06:14:13.874Z,9.40
2019-05-10T06:16:50.224Z,8.93
2019-05-10T06:19:20.403Z,9.25
2019-05-10T06:21:50.954Z,8.55
2019-05-10T06:24:21.239Z,8.35
2019-05-10T06:26:51.576Z,8.60
2019-05-10T06:29:22.998Z,9.23
2019-05-10T06:31:53.946Z,7.70
2019-05-10T06:34:24.612Z,8.90
2019-05-10T06:36:54.927Z,7.95
2019-05-10T06:39:26.665Z,8.18
2019-05-10T06:41:58.446Z,7.47
2019-05-10T06:44:35.350Z,6.90
2019-05-10T06:47:08.372Z,7.42
2019-05-10T06:49:41.711Z,7.00
2019-05-10T06:52:10.178Z,7.92
2019-05-10T06:54:40.934Z,7.12
2019-05-10T06:57:17.303Z,6.60
2019-05-10T06:59:43.606Z,6.75
2019-05-10T07:02:14.336Z,7.22
2019-05-10T07:04:45.029Z,7.47
2019-05-10T07:07:22.112Z,7.70
2019-05-10T07:10:04.158Z,7.72
2019-05-10T07:12:19.444Z,7.55
2019-05-10T07:14:50.794Z,7.70
2019-05-10T07:17:21.084Z,7.03
2019-05-10T07:19:54.928Z,7.65
2019-05-10T07:22:26.799Z,7.42
2019-05-10T07:24:57.064Z,7.10
2019-05-10T07:27:28.889Z,8.43
2019-05-10T07:29:59.223Z,7.47
2019-05-10T07:32:29.471Z,7.17
2019-05-10T07:35:01.039Z,6.62
2019-05-10T07:37:32.085Z,6.87
2019-05-10T07:40:03.767Z,7.42
2019-05-10T07:42:39.712Z,6.83
2019-05-10T07:45:09.136Z,6.40
2019-05-10T07:47:39.602Z,6.70
2019-05-10T07:50:11.633Z,6.83
2019-05-10T07:52:45.518Z,6.92
2019-05-10T07:55:18.001Z,7.37
2019-05-10T07:57:48.123Z,7.50
2019-05-10T08:00:19.771Z,6.45
2019-05-10T08:02:57.758Z,7.00
2019-05-10T08:05:23.838Z,7.55
2019-05-10T08:07:54.941Z,7.25
2019-05-10T08:10:25.420Z,7.08
2019-05-10T08:12:59.566Z,7.45
2019-05-10T08:15:30.654Z,7.90
2019-05-10T08:18:01.392Z,8.05
2019-05-10T08:20:46.387Z,7.85
2019-05-10T08:23:04.452Z,7.37
2019-05-10T08:25:36.347Z,7.22
2019-05-10T08:28:07.964Z,7.58
2019-05-10T08:30:58.384Z,7.97
2019-05-10T08:33:18.379Z,8.20
2019-05-10T08:35:52.456Z,9.10
2019-05-10T08:38:22.095Z,8.48
2019-05-10T08:40:55.419Z,9.95
2019-05-10T08:43:30.705Z,9.73
2019-05-10T08:45:58.562Z,10.28
2019-05-10T08:48:30.297Z,11.45
2019-05-10T08:51:04.067Z,10.88
2019-05-10T08:53:34.610Z,13.18
2019-05-10T08:56:07.764Z,13.95
2019-05-10T08:58:37.436Z,13.65
2019-05-10T09:01:20.364Z,14.03
2019-05-10T09:03:42.068Z,14.73
2019-05-10T09:06:16.704Z,14.05
2019-05-10T09:08:46.245Z,14.63
2019-05-10T09:11:16.750Z,14.35
2019-05-10T09:13:47.916Z,15.90
2019-05-10T09:16:18.171Z,13.38
2019-05-10T09:18:51.198Z,14.10
2019-05-10T09:21:22.782Z,12.53
2019-05-10T09:24:01.507Z,11.30
2019-05-10T09:26:25.830Z,11.48
2019-05-10T09:28:57.840Z,9.83
2019-05-10T09:31:28.575Z,10.48
2019-05-10T09:34:01.951Z,9.23
2019-05-10T09:36:36.014Z,9.50
2019-05-10T09:39:09.181Z,8.53
2019-05-10T09:41:38.837Z,8.45
2019-05-10T09:44:09.780Z,8.20
2019-05-10T09:46:42.155Z,7.80
2019-05-10T09:49:18.089Z,7.10
2019-05-10T09:51:44.931Z,8.45
2019-05-10T09:54:15.450Z,7.60
2019-05-10T09:56:51.763Z,5.75
2019-05-10T09:59:17.984Z,6.03
2019-05-10T10:01:48.556Z,5.92
2019-05-10T10:04:20.612Z,6.72
2019-05-10T10:06:52.610Z,5.78
2019-05-10T10:09:24.536Z,5.90
2019-05-10T10:12:01.573Z,5.47
2019-05-10T10:14:37.790Z,4.20
2019-05-10T10:17:03.164Z,3.58
2019-05-10T10:19:34.197Z,3.77
2019-05-10T10:22:05.597Z,3.95
2019-05-10T10:24:40.778Z,3.70
2019-05-10T10:27:09.409Z,3.65
2019-05-10T10:29:40.310Z,3.05
2019-05-10T10:32:11.489Z,3.15
2019-05-10T10:34:43.168Z,4.05
2019-05-10T10:37:14.716Z,3.30
2019-05-10T10:39:47.697Z,2.90
2019-05-10T10:42:22.566Z,3.12
2019-05-10T10:44:54.521Z,2.55
2019-05-10T10:47:28.361Z,2.58
2019-05-10T10:49:58.007Z,2.98
2019-05-10T10:52:29.448Z,2.77
2019-05-10T10:54:59.739Z,3.37
2019-05-10T10:57:29.985Z,4.15
2019-05-10T11:00:02.095Z,3.67
2019-05-10T11:02:33.990Z,3.30
2019-05-10T11:05:07.405Z,3.22
2019-05-10T11:07:41.494Z,3.37
2019-05-10T11:10:16.170Z,3.90
2019-05-10T11:12:43.799Z,3.80
2019-05-10T11:15:16.544Z,3.98
2019-05-10T11:17:47.032Z,4.75
2019-05-10T11:20:21.519Z,4.35
2019-05-10T11:22:53.332Z,4.97
2019-05-10T11:25:23.951Z,5.17
2019-05-10T11:27:58.759Z,5.33
2019-05-10T11:30:26.406Z,4.70
2019-05-10T11:32:56.905Z,5.95
2019-05-10T11:35:31.221Z,4.00
2019-05-10T11:38:01.195Z,3.15
2019-05-10T11:40:34.908Z,3.70
2019-05-10T11:43:03.235Z,2.75
2019-05-10T11:45:35.369Z,2.85
2019-05-10T11:48:06.277Z,2.40
2019-05-10T11:50:36.924Z,2.65
2019-05-10T11:53:13.201Z,2.35
2019-05-10T11:55:41.150Z,3.60
2019-05-10T11:58:13.175Z,2.80
2019-05-10T12:00:44.761Z,2.65
2019-05-10T12:03:18.962Z,3.22
2019-05-10T12:05:53.183Z,2.80
2019-05-10T12:08:22.334Z,2.92
2019-05-10T12:11:03.960Z,2.87
2019-05-10T12:13:25.647Z,2.60
2019-05-10T12:15:56.518Z,2.30
2019-05-10T12:18:27.250Z,3.25
2019-05-10T12:21:08.904Z,3.00
2019-05-10T12:23:31.776Z,2.77
2019-05-10T12:27:12.905Z,3.12
2019-05-10T12:28:35.848Z,3.22
2019-05-10T12:31:07.568Z,3.12
2019-05-10T12:33:42.099Z,3.10
2019-05-10T12:36:22.259Z,2.27
2019-05-10T12:38:43.617Z,2.90
2019-05-10T12:41:15.333Z,2.67
2019-05-10T12:43:48.474Z,2.67
2019-05-10T12:46:20.649Z,2.90
2019-05-10T12:48:51.773Z,2.85
2019-05-10T12:51:23.559Z,2.47
2019-05-10T12:53:54.048Z,2.55
2019-05-10T12:56:24.730Z,2.58
2019-05-10T12:58:57.640Z,2.45
2019-05-10T13:01:31.968Z,2.40
2019-05-10T13:04:02.250Z,2.55
2019-05-10T13:06:34.567Z,2.62
2019-05-10T13:09:07.150Z,2.55
2019-05-10T13:11:37.641Z,2.37
2019-05-10T13:14:09.746Z,2.95
2019-05-10T13:16:44.197Z,3.00
2019-05-10T13:19:20.174Z,3.10
2019-05-10T13:21:48.017Z,3.20
2019-05-10T13:24:18.504Z,2.27
2019-05-10T13:26:48.789Z,3.10
2019-05-10T13:29:19.450Z,3.10
2019-05-10T13:31:50.165Z,2.67
2019-05-10T13:34:24.322Z,2.92
2019-05-10T13:36:54.321Z,3.17
2019-05-10T13:39:25.516Z,4.28
2019-05-10T13:42:02.655Z,3.02
2019-05-10T13:44:29.268Z,2.90
2019-05-10T13:47:04.939Z,2.75
2019-05-10T13:49:34.118Z,2.75
2019-05-10T13:52:04.785Z,2.52
2019-05-10T13:54:37.926Z,2.35
2019-05-10T13:57:09.235Z,2.80
2019-05-10T13:59:39.734Z,3.20
2019-05-10T14:02:10.654Z,2.95
2019-05-10T14:04:42.307Z,4.00
2019-05-10T14:07:12.705Z,3.40
2019-05-10T14:09:43.040Z,3.42
2019-05-10T14:12:16.310Z,3.20
2019-05-10T14:14:46.264Z,3.98
2019-05-10T14:17:16.999Z,3.40
2019-05-10T14:19:47.771Z,3.70
2019-05-10T14:22:18.191Z,3.65
2019-05-10T14:24:53.337Z,3.35
2019-05-10T14:27:20.884Z,3.30
2019-05-10T14:29:51.195Z,3.77
2019-05-10T14:32:22.236Z,4.40
2019-05-10T14:34:53.209Z,4.20
2019-05-10T14:37:24.116Z,3.40
2019-05-10T14:39:54.459Z,3.75
2019-05-10T14:42:31.049Z,4.08
2019-05-10T14:44:57.696Z,4.28
2019-05-10T14:47:28.644Z,4.80
2019-05-10T14:50:00.286Z,5.87
2019-05-10T14:52:30.631Z,4.78
2019-05-10T14:55:02.061Z,4.92
2019-05-10T14:57:33.167Z,5.00
2019-05-10T15:00:05.972Z,5.42
2019-05-10T15:02:36.291Z,5.55
2019-05-10T15:05:15.947Z,4.97
2019-05-10T15:07:42.276Z,4.60
2019-05-10T15:10:13.323Z,4.10
2019-05-10T15:12:43.665Z,3.95
2019-05-10T15:15:14.184Z,4.97
2019-05-10T15:17:45.871Z,4.90
2019-05-10T15:20:16.178Z,5.25
2019-05-10T15:22:47.748Z,5.45
2019-05-10T15:25:18.537Z,5.33
2019-05-10T15:27:49.465Z,6.25
2019-05-10T15:30:19.911Z,5.90
2019-05-10T15:32:50.774Z,6.62
2019-05-10T15:35:21.272Z,6.87
2019-05-10T15:37:52.006Z,6.55
2019-05-10T15:40:22.447Z,5.97
2019-05-10T15:42:53.353Z,4.80
2019-05-10T15:45:24.660Z,5.87
2019-05-10T15:47:57.572Z,5.55
2019-05-10T15:50:32.419Z,6.08
2019-05-10T15:53:01.728Z,6.47
2019-05-10T15:55:32.920Z,6.62
2019-05-10T15:58:04.958Z,8.10
2019-05-10T16:00:39.299Z,7.75
2019-05-10T16:03:07.648Z,8.68
2019-05-10T16:05:43.565Z,8.33
2019-05-10T16:08:13.772Z,9.30
2019-05-10T16:10:45.075Z,7.87
2019-05-10T16:13:23.650Z,6.65
2019-05-10T16:15:51.568Z,6.47
2019-05-10T16:18:20.361Z,6.15
2019-05-10T16:20:51.128Z,6.62
2019-05-10T16:23:21.369Z,7.37
2019-05-10T16:25:52.538Z,5.45
2019-05-10T16:28:23.079Z,5.58
2019-05-10T16:30:54.343Z,5.67
2019-05-10T16:33:26.802Z,6.78
2019-05-10T16:35:57.052Z,6.55
2019-05-10T16:38:27.486Z,7.53
2019-05-10T16:41:00.677Z,7.87
2019-05-10T16:43:31.649Z,7.72
2019-05-10T16:46:02.893Z,6.65
2019-05-10T16:48:33.647Z,7.20
2019-05-10T16:51:09.732Z,6.20
2019-05-10T16:53:37.834Z,6.17
2019-05-10T16:56:13.358Z,6.47
2019-05-10T16:58:42.193Z,7.58
2019-05-10T17:01:13.701Z,6.53
2019-05-10T17:03:44.525Z,6.53
2019-05-10T17:06:14.773Z,6.80
2019-05-10T17:08:45.932Z,6.25
2019-05-10T17:11:16.667Z,7.12
2019-05-10T17:13:47.016Z,6.40
2019-05-10T17:16:18.879Z,4.90
2019-05-10T17:18:55.262Z,5.28
2019-05-10T17:21:22.127Z,4.92
2019-05-10T17:23:53.297Z,3.33
2019-05-10T17:26:23.788Z,2.83
2019-05-10T17:28:54.356Z,2.95
2019-05-10T17:31:25.387Z,3.55
2019-05-10T17:33:57.355Z,3.60
2019-05-10T17:36:27.665Z,4.40
2019-05-10T17:38:58.718Z,4.50
2019-05-10T17:41:29.115Z,4.20
2019-05-10T17:44:00.002Z,3.83
2019-05-10T17:46:31.427Z,4.05
2019-05-10T17:49:02.570Z,4.15
2019-05-10T17:51:33.603Z,3.08
2019-05-10T17:54:04.570Z,3.27
2019-05-10T17:56:38.731Z,2.95
2019-05-10T17:59:11.894Z,3.85
2019-05-10T18:01:40.837Z,4.00
2019-05-10T18:04:11.781Z,4.45
2019-05-10T18:06:42.131Z,4.30
2019-05-10T18:09:12.579Z,4.80
2019-05-10T18:11:44.967Z,5.08
2019-05-10T18:14:18.009Z,5.60
2019-05-10T18:16:49.848Z,6.00
2019-05-10T18:19:24.699Z,5.12
2019-05-10T18:22:00.276Z,5.95
2019-05-10T18:24:30.291Z,7.95
2019-05-10T18:27:00.693Z,8.43
2019-05-10T18:29:31.286Z,8.18
2019-05-10T18:32:01.708Z,8.98
2019-05-10T18:34:35.398Z,7.45
2019-05-10T18:37:04.996Z,5.50
2019-05-10T18:39:35.550Z,5.03
2019-05-10T18:42:06.170Z,4.22
2019-05-10T18:44:37.668Z,9.00
2019-05-10T18:47:08.956Z,4.53
2019-05-10T18:49:39.616Z,4.40
2019-05-10T18:52:10.284Z,4.70
2019-05-10T18:54:41.784Z,5.10
2019-05-10T18:57:18.781Z,5.47
2019-05-10T18:59:47.760Z,5.67
2019-05-10T19:02:19.680Z,4.05
2019-05-10T19:04:52.701Z,4.10
2019-05-10T19:07:23.350Z,3.52
2019-05-10T19:09:53.952Z,3.10
2019-05-10T19:12:24.791Z,3.60
2019-05-10T19:14:55.709Z,3.50
2019-05-10T19:17:26.006Z,2.60
2019-05-10T19:19:57.199Z,2.45
2019-05-10T19:22:27.865Z,2.05
2019-05-10T19:25:10.713Z,2.30
2019-05-10T19:27:38.759Z,2.27
2019-05-10T19:30:10.358Z,2.27
2019-05-10T19:32:41.041Z,2.67
2019-05-10T19:35:12.713Z,2.58
2019-05-10T19:37:42.978Z,2.20
2019-05-10T19:40:14.312Z,1.90
2019-05-10T19:42:45.017Z,2.00
2019-05-10T19:45:19.206Z,1.80
2019-05-10T19:47:49.998Z,2.00
2019-05-10T19:50:24.232Z,1.60
2019-05-10T19:52:53.048Z,1.85
2019-05-10T19:55:24.644Z,1.50
2019-05-10T19:57:56.595Z,1.62
2019-05-10T20:00:30.995Z,1.50
2019-05-10T20:03:01.276Z,1.40
2019-05-10T20:05:31.883Z,1.47
2019-05-10T20:08:02.195Z,1.70
2019-05-10T20:10:32.579Z,1.40
2019-05-10T20:13:03.183Z,1.60
2019-05-10T20:15:34.347Z,1.45
2019-05-10T20:18:04.843Z,1.90
2019-05-10T20:20:35.916Z,1.77
2019-05-10T20:23:06.282Z,1.98
2019-05-10T20:25:37.649Z,2.12
2019-05-10T20:28:07.971Z,2.90
2019-05-10T20:30:38.698Z,2.62
2019-05-10T20:33:09.415Z,3.22
2019-05-10T20:35:41.071Z,3.12
2019-05-10T20:38:12.129Z,2.98
2019-05-10T20:40:43.258Z,2.87
2019-05-10T20:43:13.497Z,3.20
2019-05-10T20:45:44.328Z,3.30
2019-05-10T20:48:15.825Z,3.83
2019-05-10T20:50:48.024Z,3.60
2019-05-10T20:53:18.766Z,3.42
2019-05-10T20:55:49.125Z,4.22
2019-05-10T20:58:19.875Z,3.92
2019-05-10T21:00:50.442Z,4.03
2019-05-10T21:03:20.765Z,3.75
2019-05-10T21:05:53.808Z,3.83
2019-05-10T21:08:24.174Z,4.42
2019-05-10T21:10:57.671Z,3.85
2019-05-10T21:13:28.022Z,4.40
2019-05-10T21:15:58.950Z,4.50
2019-05-10T21:18:29.641Z,3.95
2019-05-10T21:21:01.232Z,4.53
2019-05-10T21:23:31.742Z,4.62
2019-05-10T21:26:02.273Z,5.22
2019-05-10T21:28:33.614Z,4.22
2019-05-10T21:31:06.108Z,4.15
2019-05-10T21:33:36.419Z,4.12
2019-05-10T21:36:09.059Z,4.40
2019-05-10T21:38:41.624Z,4.78
2019-05-10T21:41:11.473Z,6.60
2019-05-10T21:43:42.067Z,5.45
2019-05-10T21:46:12.639Z,5.00
2019-05-10T21:48:43.738Z,5.00
2019-05-10T21:51:16.557Z,5.70
2019-05-10T21:53:46.862Z,5.42
2019-05-10T21:56:19.095Z,5.53
2019-05-10T21:58:49.477Z,5.97
2019-05-10T22:01:20.646Z,6.75
2019-05-10T22:03:50.936Z,6.97
2019-05-10T22:06:21.775Z,6.00
2019-05-10T22:08:52.013Z,6.03
2019-05-10T22:11:23.232Z,5.95
2019-05-10T22:13:53.546Z,6.10
2019-05-10T22:16:23.979Z,6.65
2019-05-10T22:19:01.826Z,6.47
2019-05-10T22:21:35.277Z,7.28
2019-05-10T22:24:05.614Z,6.17
2019-05-10T22:26:37.365Z,5.78
2019-05-10T22:29:07.677Z,5.28
2019-05-10T22:31:40.363Z,5.62
2019-05-10T22:34:10.801Z,4.72
2019-05-10T22:36:41.616Z,4.65
2019-05-10T22:39:12.144Z,5.92
2019-05-10T22:41:42.980Z,5.33
2019-05-10T22:44:13.214Z,6.40
2019-05-10T22:46:43.622Z,6.72
2019-05-10T22:49:16.811Z,7.47
2019-05-10T22:51:47.501Z,6.80
2019-05-10T22:54:18.605Z,7.70
2019-05-10T22:56:49.417Z,7.53
2019-05-10T22:59:20.148Z,8.23
2019-05-10T23:01:51.511Z,7.95
2019-05-10T23:04:23.047Z,8.03
2019-05-10T23:06:53.819Z,8.25
2019-05-10T23:09:25.280Z,8.38
2019-05-10T23:11:56.783Z,7.25
2019-05-10T23:14:28.143Z,7.92
2019-05-10T23:16:58.477Z,7.20
2019-05-10T23:19:28.873Z,7.05
2019-05-10T23:22:00.943Z,6.95
2019-05-10T23:24:40.532Z,5.37
2019-05-10T23:27:10.902Z,4.90
2019-05-10T23:29:41.426Z,4.33
2019-05-10T23:32:11.856Z,4.80
2019-05-10T23:34:42.291Z,4.90
2019-05-10T23:37:13.043Z,4.72
2019-05-10T23:39:43.801Z,4.62
2019-05-10T23:42:14.089Z,4.90
2019-05-10T23:44:47.669Z,4.62
2019-05-10T23:47:17.916Z,5.15
2019-05-10T23:49:49.641Z,4.90
2019-05-10T23:52:20.663Z,5.10
2019-05-10T23:54:50.997Z,5.50
2019-05-10T23:57:21.296Z,5.20
2019-05-10T23:59:51.754Z,4.78
